createdAt,value
2023-03-04T00:00:25.815Z,999.71
2023-03-04T00:01:25.760Z,999.69
2023-03-04T00:02:25.760Z,999.64
2023-03-04T00:03:25.793Z,999.66
2023-03-04T00:04:25.752Z,999.64
2023-03-04T00:05:25.717Z,999.61
2023-03-04T00:06:25.777Z,999.59
2023-03-04T00:07:25.681Z,999.63
2023-03-04T00:08:25.751Z,999.63
2023-03-04T00:09:25.656Z,999.64
2023-03-04T00:10:25.669Z,999.60
2023-03-04T00:11:25.643Z,999.60
2023-03-04T00:12:25.694Z,999.63
2023-03-04T00:13:25.672Z,999.65
2023-03-04T00:14:28.283Z,999.66
2023-03-04T00:15:26.215Z,999.62
2023-03-04T00:16:25.598Z,999.64
2023-03-04T00:17:26.618Z,999.60
2023-03-04T00:18:25.587Z,999.61
2023-03-04T00:19:25.566Z,999.66
2023-03-04T00:20:25.598Z,999.56
2023-03-04T00:21:25.558Z,999.57
2023-03-04T00:22:25.557Z,999.67
2023-03-04T00:23:25.613Z,999.61
2023-03-04T00:24:25.713Z,999.53
2023-03-04T00:25:25.510Z,999.60
2023-03-04T00:26:25.564Z,999.56
2023-03-04T00:27:25.473Z,999.59
2023-03-04T00:28:25.544Z,999.56
2023-03-04T00:29:25.503Z,999.58
2023-03-04T00:30:25.520Z,999.52
2023-03-04T00:31:25.550Z,999.55
2023-03-04T00:32:25.568Z,999.53
2023-03-04T00:33:25.466Z,999.52
2023-03-04T00:34:25.487Z,999.50
2023-03-04T00:35:25.477Z,999.51
2023-03-04T00:36:25.433Z,999.46
2023-03-04T00:37:25.419Z,999.46
2023-03-04T00:38:25.402Z,999.46
2023-03-04T00:39:26.274Z,999.46
2023-03-04T00:40:25.321Z,999.51
2023-03-04T00:41:25.360Z,999.54
2023-03-04T00:42:25.344Z,999.50
2023-03-04T00:43:25.369Z,999.53
2023-03-04T00:44:25.293Z,999.48
2023-03-04T00:45:25.343Z,999.52
2023-03-04T00:46:25.277Z,999.52
2023-03-04T00:47:25.264Z,999.53
2023-03-04T00:48:25.362Z,999.48
2023-03-04T00:49:25.275Z,999.55
2023-03-04T00:50:25.299Z,999.48
2023-03-04T00:51:25.238Z,999.49
2023-03-04T00:52:25.218Z,999.44
2023-03-04T00:53:25.210Z,999.43
2023-03-04T00:54:25.307Z,999.49
2023-03-04T00:55:25.203Z,999.43
2023-03-04T00:56:25.202Z,999.39
2023-03-04T00:57:26.211Z,999.43
2023-03-04T00:58:25.146Z,999.44
2023-03-04T00:59:25.207Z,999.46
2023-03-04T01:00:26.168Z,999.54
2023-03-04T01:01:25.175Z,999.46
2023-03-04T01:02:25.160Z,999.43
2023-03-04T01:03:25.104Z,999.47
2023-03-04T01:04:25.106Z,999.45
2023-03-04T01:05:25.096Z,999.42
2023-03-04T01:06:25.109Z,999.48
2023-03-04T01:07:25.149Z,999.41
2023-03-04T01:08:25.056Z,999.41
2023-03-04T01:09:25.835Z,999.39
2023-03-04T01:10:25.108Z,999.33
2023-03-04T01:11:25.055Z,999.41
2023-03-04T01:12:25.055Z,999.35
2023-03-04T01:13:25.029Z,999.31
2023-03-04T01:14:25.045Z,999.32
2023-03-04T01:15:24.993Z,999.32
2023-03-04T01:16:25.033Z,999.37
2023-03-04T01:17:24.947Z,999.41
2023-03-04T01:18:24.974Z,999.36
2023-03-04T01:19:24.978Z,999.33
2023-03-04T01:20:24.934Z,999.32
2023-03-04T01:21:24.953Z,999.35
2023-03-04T01:22:25.293Z,999.32
2023-03-04T01:23:25.908Z,999.33
2023-03-04T01:24:24.885Z,999.32
2023-03-04T01:25:24.893Z,999.32
2023-03-04T01:26:24.910Z,999.29
2023-03-04T01:27:24.887Z,999.26
2023-03-04T01:28:24.864Z,999.18
2023-03-04T01:29:24.829Z,999.20
2023-03-04T01:30:24.756Z,999.19
2023-03-04T01:31:24.785Z,999.20
2023-03-04T01:32:24.903Z,999.23
2023-03-04T01:33:24.793Z,999.18
2023-03-04T01:34:24.818Z,999.12
2023-03-04T01:35:24.792Z,999.14
2023-03-04T01:36:24.774Z,999.11
2023-03-04T01:37:24.767Z,999.14
2023-03-04T01:38:24.713Z,999.15
2023-03-04T01:39:24.776Z,999.06
2023-03-04T01:40:24.735Z,999.08
2023-03-04T01:41:24.692Z,999.03
2023-03-04T01:42:24.751Z,999.07
2023-03-04T01:43:25.701Z,999.06
2023-03-04T01:44:24.679Z,999.11
2023-03-04T01:45:24.632Z,999.11
2023-03-04T01:46:24.824Z,999.08
2023-03-04T01:47:24.680Z,999.09
2023-03-04T01:48:24.636Z,999.09
2023-03-04T01:49:24.602Z,998.97
2023-03-04T01:50:24.629Z,998.98
2023-03-04T01:51:24.591Z,999.07
2023-03-04T01:52:24.663Z,998.97
2023-03-04T01:53:24.581Z,998.98
2023-03-04T01:54:24.548Z,998.95
2023-03-04T01:55:24.590Z,999.01
2023-03-04T01:56:24.574Z,998.98
2023-03-04T01:57:24.589Z,998.94
2023-03-04T01:58:24.545Z,998.93
2023-03-04T01:59:24.540Z,998.92
2023-03-04T02:00:24.576Z,998.97
2023-03-04T02:01:24.572Z,998.92
2023-03-04T02:02:24.495Z,998.88
2023-03-04T02:03:24.461Z,998.90
2023-03-04T02:04:24.588Z,998.87
2023-03-04T02:05:24.483Z,998.89
2023-03-04T02:06:24.502Z,998.88
2023-03-04T02:07:24.482Z,998.91
2023-03-04T02:08:24.466Z,998.89
2023-03-04T02:09:24.451Z,998.83
2023-03-04T02:10:24.444Z,998.84
2023-03-04T02:11:24.387Z,998.79
2023-03-04T02:12:24.355Z,998.84
2023-03-04T02:13:24.408Z,998.82
2023-03-04T02:14:24.348Z,998.75
2023-03-04T02:15:24.348Z,998.79
2023-03-04T02:16:24.343Z,998.78
2023-03-04T02:17:24.356Z,998.78
2023-03-04T02:18:24.293Z,998.75
2023-03-04T02:19:24.376Z,998.78
2023-03-04T02:20:24.289Z,998.72
2023-03-04T02:21:24.277Z,998.74
2023-03-04T02:22:24.272Z,998.72
2023-03-04T02:23:24.257Z,998.71
2023-03-04T02:24:24.243Z,998.78
2023-03-04T02:25:24.219Z,998.70
2023-03-04T02:26:24.236Z,998.69
2023-03-04T02:27:24.149Z,998.71
2023-03-04T02:28:24.140Z,998.75
2023-03-04T02:29:24.456Z,998.78
2023-03-04T02:30:24.166Z,998.78
2023-03-04T02:31:24.222Z,998.73
2023-03-04T02:32:24.207Z,998.75
2023-03-04T02:33:24.136Z,998.71
2023-03-04T02:34:24.105Z,998.77
2023-03-04T02:35:24.223Z,998.78
2023-03-04T02:36:24.061Z,998.78
2023-03-04T02:37:24.060Z,998.73
2023-03-04T02:38:24.041Z,998.75
2023-03-04T02:39:24.037Z,998.75
2023-03-04T02:40:24.025Z,998.79
2023-03-04T02:41:24.022Z,998.73
2023-03-04T02:42:24.019Z,998.66
2023-03-04T02:43:23.986Z,998.64
2023-03-04T02:44:24.018Z,998.69
2023-03-04T02:45:24.006Z,998.63
2023-03-04T02:46:24.013Z,998.64
2023-03-04T02:47:23.953Z,998.63
2023-03-04T02:48:23.983Z,998.67
2023-03-04T02:49:23.943Z,998.66
2023-03-04T02:50:23.939Z,998.66
2023-03-04T02:51:23.899Z,998.69
2023-03-04T02:52:23.896Z,998.66
2023-03-04T02:53:23.885Z,998.65
2023-03-04T02:54:23.907Z,998.58
2023-03-04T02:55:23.909Z,998.62
2023-03-04T02:56:23.824Z,998.52
2023-03-04T02:57:23.832Z,998.55
2023-03-04T02:58:23.823Z,998.52
2023-03-04T02:59:23.860Z,998.47
2023-03-04T03:00:23.843Z,998.51
2023-03-04T03:01:24.065Z,998.47
2023-03-04T03:02:23.810Z,998.51
2023-03-04T03:03:23.818Z,998.54
2023-03-04T03:04:23.773Z,998.47
2023-03-04T03:05:23.784Z,998.40
2023-03-04T03:06:23.752Z,998.42
2023-03-04T03:07:23.749Z,998.42
2023-03-04T03:08:23.750Z,998.51
2023-03-04T03:09:23.775Z,998.48
2023-03-04T03:10:23.766Z,998.49
2023-03-04T03:11:24.826Z,998.44
2023-03-04T03:12:23.662Z,998.46
2023-03-04T03:13:23.671Z,998.45
2023-03-04T03:14:23.687Z,998.47
2023-03-04T03:15:23.642Z,998.55
2023-03-04T03:16:23.664Z,998.48
2023-03-04T03:17:23.648Z,998.50
2023-03-04T03:18:23.634Z,998.49
2023-03-04T03:19:23.663Z,998.48
2023-03-04T03:20:23.585Z,998.41
2023-03-04T03:21:23.595Z,998.49
2023-03-04T03:22:23.569Z,998.43
2023-03-04T03:23:23.562Z,998.39
2023-03-04T03:24:23.599Z,998.40
2023-03-04T03:25:23.507Z,998.40
2023-03-04T03:26:23.528Z,998.41
2023-03-04T03:27:23.511Z,998.40
2023-03-04T03:28:23.492Z,998.37
2023-03-04T03:29:23.703Z,998.40
2023-03-04T03:30:23.487Z,998.43
2023-03-04T03:31:23.550Z,998.47
2023-03-04T03:32:23.561Z,998.41
2023-03-04T03:33:23.579Z,998.43
2023-03-04T03:34:23.723Z,998.39
2023-03-04T03:35:23.487Z,998.45
2023-03-04T03:36:23.462Z,998.40
2023-03-04T03:37:23.435Z,998.43
2023-03-04T03:38:23.421Z,998.33
2023-03-04T03:39:23.397Z,998.40
2023-03-04T03:40:23.366Z,998.40
2023-03-04T03:41:23.435Z,998.45
2023-03-04T03:42:23.331Z,998.43
2023-03-04T03:43:23.351Z,998.34
2023-03-04T03:44:23.359Z,998.38
2023-03-04T03:45:23.300Z,998.48
2023-03-04T03:46:23.312Z,998.45
2023-03-04T03:47:23.328Z,998.35
2023-03-04T03:48:23.302Z,998.37
2023-03-04T03:49:23.301Z,998.42
2023-03-04T03:50:23.296Z,998.42
2023-03-04T03:51:23.257Z,998.41
2023-03-04T03:52:23.211Z,998.37
2023-03-04T03:53:23.242Z,998.41
2023-03-04T03:54:23.209Z,998.42
2023-03-04T03:55:23.231Z,998.41
2023-03-04T03:56:23.225Z,998.32
2023-03-04T03:57:23.187Z,998.41
2023-03-04T03:58:23.184Z,998.38
2023-03-04T03:59:23.209Z,998.36
2023-03-04T04:00:23.141Z,998.40
2023-03-04T04:01:23.143Z,998.30
2023-03-04T04:02:23.294Z,998.37
2023-03-04T04:03:23.100Z,998.34
2023-03-04T04:04:23.250Z,998.26
2023-03-04T04:05:24.093Z,998.37
2023-03-04T04:06:23.075Z,998.34
2023-03-04T04:07:23.046Z,998.33
2023-03-04T04:08:23.083Z,998.33
2023-03-04T04:09:23.067Z,998.34
2023-03-04T04:10:23.041Z,998.33
2023-03-04T04:11:23.043Z,998.33
2023-03-04T04:12:23.050Z,998.33
2023-03-04T04:13:23.001Z,998.32
2023-03-04T04:14:23.052Z,998.33
2023-03-04T04:15:23.044Z,998.31
2023-03-04T04:16:23.184Z,998.32
2023-03-04T04:17:22.956Z,998.29
2023-03-04T04:18:22.984Z,998.31
2023-03-04T04:19:22.944Z,998.35
2023-03-04T04:20:25.599Z,998.34
2023-03-04T04:21:22.913Z,998.35
2023-03-04T04:22:22.934Z,998.33
2023-03-04T04:23:22.902Z,998.36
2023-03-04T04:24:22.869Z,998.35
2023-03-04T04:25:23.928Z,998.31
2023-03-04T04:26:22.872Z,998.35
2023-03-04T04:27:22.842Z,998.34
2023-03-04T04:28:22.873Z,998.31
2023-03-04T04:29:22.817Z,998.36
2023-03-04T04:30:22.857Z,998.37
2023-03-04T04:31:22.837Z,998.32
2023-03-04T04:32:22.882Z,998.39
2023-03-04T04:33:22.808Z,998.36
2023-03-04T04:34:22.765Z,998.35
2023-03-04T04:35:22.774Z,998.31
2023-03-04T04:36:22.810Z,998.37
2023-03-04T04:37:22.781Z,998.32
2023-03-04T04:38:22.792Z,998.30
2023-03-04T04:39:22.713Z,998.26
2023-03-04T04:40:22.853Z,998.32
2023-03-04T04:41:22.758Z,998.27
2023-03-04T04:42:22.689Z,998.24
2023-03-04T04:43:22.655Z,998.24
2023-03-04T04:44:22.670Z,998.13
2023-03-04T04:45:22.662Z,998.26
2023-03-04T04:46:22.811Z,998.22
2023-03-04T04:47:22.604Z,998.19
2023-03-04T04:48:22.616Z,998.21
2023-03-04T04:49:22.607Z,998.14
2023-03-04T04:50:22.615Z,998.14
2023-03-04T04:51:22.611Z,998.20
2023-03-04T04:52:22.589Z,998.17
2023-03-04T04:53:22.703Z,998.10
2023-03-04T04:54:22.553Z,998.20
2023-03-04T04:55:22.566Z,998.18
2023-03-04T04:56:22.563Z,998.16
2023-03-04T04:57:22.550Z,998.15
2023-03-04T04:58:22.544Z,998.16
2023-03-04T04:59:22.514Z,998.11
2023-03-04T05:00:22.484Z,998.09
2023-03-04T05:01:22.505Z,998.16
2023-03-04T05:02:22.478Z,998.08
2023-03-04T05:03:23.647Z,998.05
2023-03-04T05:04:23.511Z,998.08
2023-03-04T05:05:22.405Z,998.04
2023-03-04T05:06:22.407Z,998.05
2023-03-04T05:07:22.444Z,998.08
2023-03-04T05:08:22.409Z,998.08
2023-03-04T05:09:22.389Z,998.04
2023-03-04T05:10:22.419Z,998.09
2023-03-04T05:11:22.334Z,998.06
2023-03-04T05:12:22.379Z,998.07
2023-03-04T05:13:22.366Z,998.08
2023-03-04T05:14:22.346Z,998.08
2023-03-04T05:15:22.306Z,998.14
2023-03-04T05:16:22.331Z,998.05
2023-03-04T05:17:22.306Z,998.10
2023-03-04T05:18:22.302Z,998.10
2023-03-04T05:19:22.336Z,998.16
2023-03-04T05:20:22.269Z,998.08
2023-03-04T05:21:22.276Z,998.14
2023-03-04T05:22:22.255Z,998.10
2023-03-04T05:23:23.042Z,998.13
2023-03-04T05:24:22.237Z,998.17
2023-03-04T05:25:22.207Z,998.17
2023-03-04T05:26:22.190Z,998.11
2023-03-04T05:27:22.220Z,998.13
2023-03-04T05:28:22.193Z,998.15
2023-03-04T05:29:22.636Z,998.14
2023-03-04T05:30:22.209Z,998.22
2023-03-04T05:31:22.265Z,998.19
2023-03-04T05:32:22.224Z,998.18
2023-03-04T05:33:22.137Z,998.19
2023-03-04T05:34:22.144Z,998.15
2023-03-04T05:35:22.192Z,998.11
2023-03-04T05:36:22.108Z,998.13
2023-03-04T05:37:22.087Z,998.16
2023-03-04T05:38:22.097Z,998.12
2023-03-04T05:39:22.030Z,998.15
2023-03-04T05:40:22.030Z,998.11
2023-03-04T05:41:22.081Z,998.15
2023-03-04T05:42:22.062Z,998.16
2023-03-04T05:43:22.025Z,998.16
2023-03-04T05:44:22.015Z,998.24
2023-03-04T05:45:22.016Z,998.18
2023-03-04T05:46:22.026Z,998.15
2023-03-04T05:47:22.077Z,998.10
2023-03-04T05:48:21.986Z,998.21
2023-03-04T05:49:21.956Z,998.12
2023-03-04T05:50:21.935Z,998.14
2023-03-04T05:51:21.969Z,998.18
2023-03-04T05:52:21.952Z,998.22
2023-03-04T05:53:21.916Z,998.27
2023-03-04T05:54:21.898Z,998.21
2023-03-04T05:55:21.885Z,998.21
2023-03-04T05:56:21.920Z,998.23
2023-03-04T05:57:21.854Z,998.26
2023-03-04T05:58:21.865Z,998.17
2023-03-04T05:59:21.826Z,998.17
2023-03-04T06:00:21.831Z,998.14
2023-03-04T06:01:21.825Z,998.20
2023-03-04T06:02:21.852Z,998.21
2023-03-04T06:03:21.849Z,998.17
2023-03-04T06:04:21.778Z,998.09
2023-03-04T06:05:21.780Z,998.10
2023-03-04T06:06:21.779Z,998.12
2023-03-04T06:07:21.735Z,998.20
2023-03-04T06:08:21.765Z,998.19
2023-03-04T06:09:21.700Z,998.21
2023-03-04T06:10:21.694Z,998.22
2023-03-04T06:11:21.748Z,998.18
2023-03-04T06:12:21.665Z,998.26
2023-03-04T06:13:22.719Z,998.21
2023-03-04T06:14:21.786Z,998.21
2023-03-04T06:15:21.715Z,998.26
2023-03-04T06:16:21.751Z,998.27
2023-03-04T06:17:21.642Z,998.28
2023-03-04T06:18:21.639Z,998.32
2023-03-04T06:19:21.673Z,998.30
2023-03-04T06:20:21.632Z,998.27
2023-03-04T06:21:21.629Z,998.32
2023-03-04T06:22:21.619Z,998.27
2023-03-04T06:23:21.568Z,998.33
2023-03-04T06:24:21.612Z,998.34
2023-03-04T06:25:21.582Z,998.33
2023-03-04T06:26:21.539Z,998.33
2023-03-04T06:27:21.588Z,998.35
2023-03-04T06:28:21.534Z,998.32
2023-03-04T06:29:21.550Z,998.29
2023-03-04T06:30:22.088Z,998.30
2023-03-04T06:31:21.541Z,998.32
2023-03-04T06:32:21.530Z,998.33
2023-03-04T06:33:21.490Z,998.34
2023-03-04T06:34:21.451Z,998.31
2023-03-04T06:35:21.484Z,998.33
2023-03-04T06:36:21.443Z,998.34
2023-03-04T06:37:22.456Z,998.36
2023-03-04T06:38:21.411Z,998.40
2023-03-04T06:39:21.493Z,998.44
2023-03-04T06:40:21.423Z,998.43
2023-03-04T06:41:21.386Z,998.41
2023-03-04T06:42:21.414Z,998.41
2023-03-04T06:43:21.358Z,998.38
2023-03-04T06:44:21.372Z,998.41
2023-03-04T06:45:21.357Z,998.42
2023-03-04T06:46:21.396Z,998.32
2023-03-04T06:47:21.322Z,998.32
2023-03-04T06:48:21.333Z,998.34
2023-03-04T06:49:21.337Z,998.37
2023-03-04T06:50:21.282Z,998.41
2023-03-04T06:51:21.264Z,998.39
2023-03-04T06:52:21.302Z,998.36
2023-03-04T06:53:21.314Z,998.35
2023-03-04T06:54:21.299Z,998.38
2023-03-04T06:55:21.276Z,998.43
2023-03-04T06:56:21.221Z,998.40
2023-03-04T06:57:21.184Z,998.43
2023-03-04T06:58:21.205Z,998.43
2023-03-04T06:59:21.201Z,998.42
2023-03-04T07:00:21.170Z,998.40
2023-03-04T07:01:21.179Z,998.35
2023-03-04T07:02:21.162Z,998.44
2023-03-04T07:03:21.166Z,998.39
2023-03-04T07:04:21.144Z,998.40
2023-03-04T07:05:21.097Z,998.38
2023-03-04T07:06:21.093Z,998.44
2023-03-04T07:07:21.137Z,998.42
2023-03-04T07:08:22.106Z,998.44
2023-03-04T07:09:22.062Z,998.34
2023-03-04T07:10:21.135Z,998.35
2023-03-04T07:11:21.045Z,998.35
2023-03-04T07:12:21.056Z,998.36
2023-03-04T07:13:21.051Z,998.36
2023-03-04T07:14:23.743Z,998.35
2023-03-04T07:15:21.022Z,998.32
2023-03-04T07:16:21.017Z,998.35
2023-03-04T07:17:21.003Z,998.35
2023-03-04T07:18:20.964Z,998.41
2023-03-04T07:19:20.958Z,998.35
2023-03-04T07:20:20.924Z,998.37
2023-03-04T07:21:20.942Z,998.37
2023-03-04T07:22:20.899Z,998.29
2023-03-04T07:23:20.926Z,998.41
2023-03-04T07:24:20.914Z,998.49
2023-03-04T07:25:20.867Z,998.28
2023-03-04T07:26:20.886Z,998.36
2023-03-04T07:27:20.878Z,998.39
2023-03-04T07:28:21.931Z,998.37
2023-03-04T07:29:20.860Z,998.32
2023-03-04T07:30:20.844Z,998.38
2023-03-04T07:31:20.921Z,998.37
2023-03-04T07:32:21.045Z,998.32
2023-03-04T07:33:20.865Z,998.42
2023-03-04T07:34:20.819Z,998.37
2023-03-04T07:35:20.818Z,998.40
2023-03-04T07:36:20.772Z,998.42
2023-03-04T07:37:21.020Z,998.38
2023-03-04T07:38:20.864Z,998.42
2023-03-04T07:39:20.704Z,998.40
2023-03-04T07:40:20.782Z,998.42
2023-03-04T07:41:20.715Z,998.45
2023-03-04T07:42:20.680Z,998.44
2023-03-04T07:43:20.685Z,998.34
2023-03-04T07:44:20.740Z,998.45
2023-03-04T07:45:20.882Z,998.46
2023-03-04T07:46:20.957Z,998.40
2023-03-04T07:47:20.789Z,998.48
2023-03-04T07:48:20.848Z,998.33
2023-03-04T07:49:21.058Z,998.43
2023-03-04T07:50:20.945Z,998.38
2023-03-04T07:51:20.623Z,998.43
2023-03-04T07:52:20.619Z,998.42
2023-03-04T07:53:20.562Z,998.47
2023-03-04T07:54:20.591Z,998.51
2023-03-04T07:55:20.755Z,998.51
2023-03-04T07:56:20.561Z,998.50
2023-03-04T07:57:20.579Z,998.46
2023-03-04T07:58:20.527Z,998.45
2023-03-04T07:59:20.610Z,998.42
2023-03-04T08:00:20.583Z,998.53
2023-03-04T08:01:20.601Z,998.49
2023-03-04T08:02:20.612Z,998.48
2023-03-04T08:03:20.601Z,998.45
2023-03-04T08:04:20.528Z,998.45
2023-03-04T08:05:20.434Z,998.43
2023-03-04T08:06:20.471Z,998.49
2023-03-04T08:07:20.478Z,998.44
2023-03-04T08:08:20.412Z,998.51
2023-03-04T08:09:20.704Z,998.45
2023-03-04T08:10:52.808Z,998.48
2023-03-04T08:11:20.477Z,998.48
2023-03-04T08:12:20.428Z,998.48
2023-03-04T08:13:20.390Z,998.44
2023-03-04T08:14:20.457Z,998.44
2023-03-04T08:15:20.400Z,998.45
2023-03-04T08:16:20.428Z,998.41
2023-03-04T08:17:20.387Z,998.44
2023-03-04T08:18:20.389Z,998.46
2023-03-04T08:19:20.335Z,998.47
2023-03-04T08:20:20.317Z,998.41
2023-03-04T08:21:20.285Z,998.41
2023-03-04T08:22:20.383Z,998.40
2023-03-04T08:23:21.875Z,998.39
2023-03-04T08:24:20.327Z,998.38
2023-03-04T08:25:20.285Z,998.46
2023-03-04T08:26:21.097Z,998.43
2023-03-04T08:27:20.174Z,998.38
2023-03-04T08:28:20.186Z,998.40
2023-03-04T08:29:20.174Z,998.38
2023-03-04T08:30:20.137Z,998.40
2023-03-04T08:31:20.329Z,998.35
2023-03-04T08:32:20.321Z,998.35
2023-03-04T08:33:20.137Z,998.36
2023-03-04T08:34:20.114Z,998.31
2023-03-04T08:35:20.132Z,998.30
2023-03-04T08:36:20.146Z,998.29
2023-03-04T08:37:20.089Z,998.27
2023-03-04T08:38:20.595Z,998.31
2023-03-04T08:39:20.058Z,998.22
2023-03-04T08:40:20.053Z,998.19
2023-03-04T08:41:20.039Z,998.27
2023-03-04T08:42:20.042Z,998.30
2023-03-04T08:43:20.009Z,998.24
2023-03-04T08:44:20.001Z,998.21
2023-03-04T08:45:20.022Z,998.26
2023-03-04T08:46:20.016Z,998.23
2023-03-04T08:47:19.972Z,998.22
2023-03-04T08:48:19.997Z,998.20
2023-03-04T08:49:19.963Z,998.32
2023-03-04T08:50:22.289Z,998.24
2023-03-04T08:51:20.933Z,998.16
2023-03-04T08:52:19.909Z,998.22
2023-03-04T08:53:19.947Z,998.22
2023-03-04T08:54:20.055Z,998.28
2023-03-04T08:55:19.887Z,998.19
2023-03-04T08:56:19.934Z,998.25
2023-03-04T08:57:19.880Z,998.19
2023-03-04T08:58:19.894Z,998.11
2023-03-04T08:59:19.874Z,998.09
2023-03-04T09:00:19.855Z,998.11
2023-03-04T09:01:19.896Z,998.12
2023-03-04T09:02:19.907Z,998.16
2023-03-04T09:03:19.844Z,998.19
2023-03-04T09:04:19.831Z,998.17
2023-03-04T09:05:19.858Z,998.09
2023-03-04T09:06:19.790Z,998.14
2023-03-04T09:07:19.812Z,998.16
2023-03-04T09:08:19.792Z,998.16
2023-03-04T09:09:19.739Z,998.12
2023-03-04T09:10:19.749Z,998.06
2023-03-04T09:11:19.785Z,998.14
2023-03-04T09:12:19.733Z,998.13
2023-03-04T09:13:19.727Z,998.12
2023-03-04T09:14:19.743Z,998.11
2023-03-04T09:15:19.764Z,998.12
2023-03-04T09:16:19.733Z,998.03
2023-03-04T09:17:20.664Z,998.10
2023-03-04T09:18:19.671Z,998.13
2023-03-04T09:19:19.712Z,998.13
2023-03-04T09:20:19.671Z,998.14
2023-03-04T09:21:20.618Z,998.15
2023-03-04T09:22:19.661Z,998.16
2023-03-04T09:23:19.614Z,998.17
2023-03-04T09:24:19.591Z,998.10
2023-03-04T09:25:19.630Z,998.09
2023-03-04T09:26:19.574Z,998.05
2023-03-04T09:27:19.544Z,998.08
2023-03-04T09:28:20.213Z,998.13
2023-03-04T09:29:19.534Z,998.09
2023-03-04T09:30:19.511Z,998.09
2023-03-04T09:31:19.561Z,998.09
2023-03-04T09:32:19.698Z,998.06
2023-03-04T09:33:19.565Z,998.03
2023-03-04T09:34:19.478Z,998.03
2023-03-04T09:35:19.528Z,998.08
2023-03-04T09:36:19.507Z,998.04
2023-03-04T09:37:19.471Z,998.13
2023-03-04T09:38:19.475Z,998.15
2023-03-04T09:39:22.743Z,998.16
2023-03-04T09:40:19.445Z,998.16
2023-03-04T09:41:19.399Z,998.15
2023-03-04T09:42:19.344Z,998.10
2023-03-04T09:43:19.444Z,998.19
2023-03-04T09:44:19.346Z,998.05
2023-03-04T09:45:19.353Z,998.19
2023-03-04T09:46:19.384Z,998.18
2023-03-04T09:47:19.314Z,998.11
2023-03-04T09:48:19.287Z,998.07
2023-03-04T09:49:19.325Z,998.14
2023-03-04T09:50:19.321Z,998.14
2023-03-04T09:51:19.376Z,998.21
2023-03-04T09:52:19.313Z,998.15
2023-03-04T09:53:19.275Z,998.16
2023-03-04T09:54:19.264Z,998.18
2023-03-04T09:55:19.238Z,998.23
2023-03-04T09:56:19.228Z,998.24
2023-03-04T09:57:19.608Z,998.24
2023-03-04T09:58:19.257Z,998.22
2023-03-04T09:59:19.221Z,998.30
2023-03-04T10:00:19.227Z,998.25
2023-03-04T10:01:19.279Z,998.20
2023-03-04T10:02:19.178Z,998.19
2023-03-04T10:03:19.248Z,998.19
2023-03-04T10:04:19.217Z,998.26
2023-03-04T10:05:19.175Z,998.22
2023-03-04T10:06:20.131Z,998.23
2023-03-04T10:07:19.120Z,998.20
2023-03-04T10:08:19.138Z,998.25
2023-03-04T10:09:19.126Z,998.22
2023-03-04T10:10:19.131Z,998.23
2023-03-04T10:11:19.065Z,998.16
2023-03-04T10:12:19.061Z,998.20
2023-03-04T10:13:19.054Z,998.20
2023-03-04T10:14:19.046Z,998.19
2023-03-04T10:15:19.045Z,998.26
2023-03-04T10:16:18.993Z,998.26
2023-03-04T10:17:19.020Z,998.17
2023-03-04T10:18:20.587Z,998.17
2023-03-04T10:19:19.994Z,998.12
2023-03-04T10:20:19.015Z,998.20
2023-03-04T10:21:18.965Z,998.18
2023-03-04T10:22:18.921Z,998.14
2023-03-04T10:23:18.928Z,998.10
2023-03-04T10:24:18.931Z,998.16
2023-03-04T10:25:18.895Z,998.12
2023-03-04T10:26:18.957Z,998.09
2023-03-04T10:27:18.894Z,998.08
2023-03-04T10:28:18.868Z,998.06
2023-03-04T10:29:18.862Z,998.06
2023-03-04T10:30:18.872Z,998.03
2023-03-04T10:31:18.884Z,998.12
2023-03-04T10:32:18.908Z,998.03
2023-03-04T10:33:18.811Z,997.99
2023-03-04T10:34:19.873Z,998.03
2023-03-04T10:35:20.451Z,997.99
2023-03-04T10:36:19.826Z,998.06
2023-03-04T10:37:18.763Z,998.02
2023-03-04T10:38:18.787Z,998.08
2023-03-04T10:39:18.810Z,998.06
2023-03-04T10:40:18.779Z,998.03
2023-03-04T10:41:19.689Z,998.10
2023-03-04T10:42:18.822Z,998.02
2023-03-04T10:43:18.764Z,998.02
2023-03-04T10:44:18.675Z,998.06
2023-03-04T10:45:18.710Z,998.03
2023-03-04T10:46:19.551Z,998.07
2023-03-04T10:47:18.690Z,998.09
2023-03-04T10:48:18.607Z,998.08
2023-03-04T10:49:18.677Z,997.97
2023-03-04T10:50:18.612Z,997.95
2023-03-04T10:51:18.603Z,997.99
2023-03-04T10:52:18.561Z,998.00
2023-03-04T10:53:18.580Z,998.03
2023-03-04T10:54:18.569Z,997.96
2023-03-04T10:55:18.607Z,997.98
2023-03-04T10:56:18.550Z,997.99
2023-03-04T10:57:18.531Z,997.90
2023-03-04T10:58:18.506Z,997.88
2023-03-04T10:59:18.506Z,997.90
2023-03-04T11:00:18.575Z,997.90
2023-03-04T11:01:18.575Z,997.87
2023-03-04T11:02:18.487Z,997.87
2023-03-04T11:03:18.496Z,997.89
2023-03-04T11:04:18.443Z,997.85
2023-03-04T11:05:18.629Z,997.79
2023-03-04T11:06:18.503Z,997.87
2023-03-04T11:07:18.468Z,997.85
2023-03-04T11:08:18.434Z,997.85
2023-03-04T11:09:18.435Z,997.88
2023-03-04T11:10:18.379Z,997.87
2023-03-04T11:11:18.340Z,997.84
2023-03-04T11:12:18.367Z,997.87
2023-03-04T11:13:18.347Z,997.81
2023-03-04T11:14:18.351Z,997.89
2023-03-04T11:15:18.309Z,997.81
2023-03-04T11:16:18.332Z,997.85
2023-03-04T11:17:18.491Z,997.77
2023-03-04T11:18:18.320Z,997.83
2023-03-04T11:19:18.792Z,997.82
2023-03-04T11:20:18.383Z,997.80
2023-03-04T11:21:18.256Z,997.76
2023-03-04T11:22:18.257Z,997.82
2023-03-04T11:23:18.311Z,997.81
2023-03-04T11:24:29.420Z,997.76
2023-03-04T11:25:20.225Z,997.69
2023-03-04T11:26:18.261Z,997.78
2023-03-04T11:27:18.266Z,997.78
2023-03-04T11:28:18.217Z,997.78
2023-03-04T11:29:18.215Z,997.85
2023-03-04T11:30:18.203Z,997.78
2023-03-04T11:31:18.106Z,997.75
2023-03-04T11:32:18.277Z,997.75
2023-03-04T11:33:18.116Z,997.77
2023-03-04T11:34:18.211Z,997.75
2023-03-04T11:35:18.193Z,997.75
2023-03-04T11:36:18.088Z,997.76
2023-03-04T11:37:18.079Z,997.75
2023-03-04T11:38:18.098Z,997.66
2023-03-04T11:39:18.046Z,997.72
2023-03-04T11:40:18.043Z,997.75
2023-03-04T11:41:18.694Z,997.78
2023-03-04T11:42:18.048Z,997.75
2023-03-04T11:43:18.041Z,997.72
2023-03-04T11:44:18.023Z,997.81
2023-03-04T11:45:28.203Z,997.79
2023-03-04T11:46:20.127Z,997.77
2023-03-04T11:47:18.796Z,997.74
2023-03-04T11:48:18.058Z,997.71
2023-03-04T11:49:17.985Z,997.72
2023-03-04T11:50:18.046Z,997.73
2023-03-04T11:51:17.951Z,997.63
2023-03-04T11:52:17.977Z,997.59
2023-03-04T11:53:17.998Z,997.65
2023-03-04T11:54:17.950Z,997.69
2023-03-04T11:56:34.042Z,997.63
2023-03-04T11:56:35.538Z,997.70
2023-03-04T11:57:35.517Z,997.72
2023-03-04T11:58:35.510Z,997.66
2023-03-04T11:59:35.507Z,997.55
2023-03-04T12:00:35.489Z,997.56
2023-03-04T12:01:35.482Z,997.59
2023-03-04T12:02:35.545Z,997.54
2023-03-04T12:03:35.568Z,997.59
2023-03-04T12:04:35.464Z,997.52
2023-03-04T12:05:35.926Z,997.54
2023-03-04T12:06:35.485Z,997.56
2023-03-04T12:07:35.436Z,997.60
2023-03-04T12:08:37.843Z,997.50
2023-03-04T12:09:36.490Z,997.55
2023-03-04T12:10:35.424Z,997.48
2023-03-04T12:11:35.436Z,997.46
2023-03-04T12:12:35.439Z,997.49
2023-03-04T12:13:35.377Z,997.49
2023-03-04T12:14:35.357Z,997.47
2023-03-04T12:15:35.358Z,997.44
2023-03-04T12:16:36.078Z,997.44
2023-03-04T12:17:35.294Z,997.45
2023-03-04T12:18:35.271Z,997.44
2023-03-04T12:19:35.312Z,997.42
2023-03-04T12:20:35.283Z,997.37
2023-03-04T12:21:35.285Z,997.39
2023-03-04T12:22:36.140Z,997.36
2023-03-04T12:23:35.358Z,997.35
2023-03-04T12:24:35.307Z,997.30
2023-03-04T12:25:35.251Z,997.33
2023-03-04T12:26:35.239Z,997.31
2023-03-04T12:27:35.231Z,997.30
2023-03-04T12:28:35.241Z,997.29